createdAt,value
2018-05-09T00:01:35.929Z,23.46
2018-05-09T00:04:16.108Z,23.40
2018-05-09T00:06:45.022Z,23.33
2018-05-09T00:09:15.137Z,23.24
2018-05-09T00:11:43.702Z,23.21
2018-05-09T00:14:12.719Z,23.17
2018-05-09T00:16:44.264Z,23.12
2018-05-09T00:19:12.775Z,23.10
2018-05-09T00:21:42.155Z,23.05
2018-05-09T00:24:10.694Z,23.03
2018-05-09T00:26:44.437Z,22.98
2018-05-09T00:29:13.426Z,22.96
2018-05-09T00:31:41.934Z,22.95
2018-05-09T00:34:10.530Z,22.97
2018-05-09T00:36:39.893Z,22.98
2018-05-09T00:39:08.922Z,22.99
2018-05-09T00:41:37.450Z,23.01
2018-05-09T00:44:12.092Z,23.01
2018-05-09T00:46:40.741Z,23.03
2018-05-09T00:49:09.277Z,22.97
2018-05-09T00:51:38.223Z,22.96
2018-05-09T00:54:15.641Z,22.93
2018-05-09T00:56:44.183Z,22.88
2018-05-09T00:59:12.703Z,22.84
2018-05-09T01:01:41.274Z,22.84
2018-05-09T01:04:10.521Z,22.82
2018-05-09T01:06:39.055Z,22.77
2018-05-09T01:09:13.213Z,22.72
2018-05-09T01:11:44.559Z,22.72
2018-05-09T01:14:13.279Z,22.69
2018-05-09T01:16:41.983Z,22.67
2018-05-09T01:19:11.867Z,22.64
2018-05-09T01:21:40.363Z,22.56
2018-05-09T01:24:08.946Z,22.48
2018-05-09T01:26:38.039Z,22.44
2018-05-09T01:29:06.578Z,22.37
2018-05-09T01:31:35.088Z,22.34
2018-05-09T01:36:38.115Z,22.24
2018-05-09T01:39:11.614Z,22.22
2018-05-09T01:41:40.418Z,22.16
2018-05-09T01:44:08.982Z,22.14
2018-05-09T01:46:41.159Z,22.12
2018-05-09T01:49:09.806Z,22.12
2018-05-09T01:51:38.307Z,22.11
2018-05-09T01:59:52.394Z,21.98
2018-05-09T02:05:00.728Z,21.94
2018-05-09T02:07:29.278Z,21.89
2018-05-09T02:09:57.831Z,21.80
2018-05-09T02:12:26.802Z,21.75
2018-05-09T02:14:55.317Z,21.71
2018-05-09T02:17:24.515Z,21.67
2018-05-09T02:19:53.574Z,21.62
2018-05-09T02:22:22.102Z,21.56
2018-05-09T02:24:50.877Z,21.48
2018-05-09T02:27:19.757Z,21.42
2018-05-09T02:29:48.595Z,21.43
2018-05-09T02:32:17.232Z,21.41
2018-05-09T02:34:46.203Z,21.36
2018-05-09T02:37:14.693Z,21.32
2018-05-09T02:39:43.175Z,21.29
2018-05-09T02:42:12.055Z,21.30
2018-05-09T02:44:40.501Z,21.24
2018-05-09T02:47:08.932Z,21.23
2018-05-09T02:49:37.793Z,21.21
2018-05-09T02:52:06.369Z,21.20
2018-05-09T02:54:34.949Z,21.19
2018-05-09T02:57:03.962Z,21.13
2018-05-09T02:59:32.468Z,21.11
2018-05-09T03:02:11.642Z,21.08
2018-05-09T03:04:40.739Z,21.03
2018-05-09T03:07:20.581Z,21.00
2018-05-09T03:09:49.156Z,21.01
2018-05-09T03:12:21.627Z,20.97
2018-05-09T03:14:50.176Z,20.96
2018-05-09T03:17:18.764Z,20.90
2018-05-09T03:19:47.627Z,20.79
2018-05-09T03:22:27.319Z,20.75
2018-05-09T03:24:56.391Z,20.64
2018-05-09T03:27:25.252Z,20.64
2018-05-09T03:29:53.943Z,20.61
2018-05-09T03:32:22.679Z,20.59
2018-05-09T03:34:51.274Z,20.51
2018-05-09T03:37:20.869Z,20.48
2018-05-09T03:39:49.286Z,20.40
2018-05-09T03:42:18.039Z,20.39
2018-05-09T03:44:46.565Z,20.43
2018-05-09T03:47:16.894Z,20.47
2018-05-09T03:49:45.868Z,20.45
2018-05-09T03:52:15.434Z,20.47
2018-05-09T03:54:44.227Z,20.47
2018-05-09T03:57:13.206Z,20.42
2018-05-09T03:59:45.544Z,20.40
2018-05-09T04:03:32.367Z,20.36
2018-05-09T04:06:15.198Z,20.31
2018-05-09T04:09:52.428Z,20.28
2018-05-09T04:12:20.967Z,20.24
2018-05-09T04:14:49.952Z,20.22
2018-05-09T04:17:18.811Z,20.23
2018-05-09T04:19:47.931Z,20.21
2018-05-09T04:22:16.690Z,20.25
2018-05-09T04:24:45.269Z,20.27
2018-05-09T04:27:19.473Z,20.28
2018-05-09T04:29:48.047Z,20.32
2018-05-09T04:32:16.782Z,20.33
2018-05-09T04:34:47.716Z,20.32
2018-05-09T04:37:16.383Z,20.29
2018-05-09T04:39:45.314Z,20.32
2018-05-09T04:42:14.265Z,20.34
2018-05-09T04:44:42.879Z,20.35
2018-05-09T04:47:17.627Z,20.40
2018-05-09T04:49:46.390Z,20.44
2018-05-09T04:52:15.269Z,20.45
2018-05-09T04:54:50.803Z,20.46
2018-05-09T04:57:19.744Z,20.49
2018-05-09T04:59:48.365Z,20.52
2018-05-09T05:02:17.399Z,20.56
2018-05-09T05:06:52.946Z,20.60
2018-05-09T05:09:22.217Z,20.68
2018-05-09T05:12:03.176Z,20.72
2018-05-09T05:14:32.572Z,20.74
2018-05-09T05:17:01.539Z,20.78
2018-05-09T05:19:30.466Z,20.81
2018-05-09T05:22:00.723Z,20.83
2018-05-09T05:24:33.023Z,20.86
2018-05-09T05:27:01.900Z,20.95
2018-05-09T05:29:30.823Z,20.98
2018-05-09T05:31:59.569Z,21.06
2018-05-09T05:34:28.639Z,21.14
2018-05-09T05:36:58.223Z,21.24
2018-05-09T05:39:26.772Z,21.31
2018-05-09T05:41:55.439Z,21.36
2018-05-09T05:44:30.335Z,21.39
2018-05-09T05:46:58.947Z,21.42
2018-05-09T05:51:42.412Z,21.44
2018-05-09T05:54:11.054Z,21.52
2018-05-09T05:56:39.658Z,21.55
2018-05-09T06:02:03.067Z,21.77
2018-05-09T06:04:31.963Z,21.87
2018-05-09T06:07:13.323Z,21.99
2018-05-09T06:09:42.983Z,22.02
2018-05-09T06:12:11.605Z,22.04
2018-05-09T06:14:43.483Z,22.05
2018-05-09T06:17:12.130Z,22.09
2018-05-09T06:19:40.629Z,22.20
2018-05-09T06:22:09.611Z,22.34
2018-05-09T06:24:38.136Z,22.51
2018-05-09T06:27:09.835Z,22.68
2018-05-09T06:29:39.338Z,22.87
2018-05-09T06:32:08.787Z,23.04
2018-05-09T06:34:38.040Z,23.16
2018-05-09T06:37:09.043Z,23.33
2018-05-09T06:39:37.660Z,23.43
2018-05-09T06:42:10.216Z,23.55
2018-05-09T06:44:39.184Z,23.63
2018-05-09T06:47:08.286Z,23.71
2018-05-09T06:49:38.891Z,23.76
2018-05-09T06:52:12.526Z,23.75
2018-05-09T06:54:41.625Z,23.73
2018-05-09T06:57:10.772Z,23.81
2018-05-09T07:02:15.683Z,23.90
2018-05-09T07:04:45.027Z,23.84
2018-05-09T07:07:13.678Z,23.94
2018-05-09T07:09:42.436Z,23.90
2018-05-09T07:12:11.703Z,24.01
2018-05-09T07:14:43.065Z,24.06
2018-05-09T07:17:13.203Z,23.91
2018-05-09T07:19:47.946Z,24.02
2018-05-09T07:22:17.128Z,23.93
2018-05-09T07:24:52.194Z,24.02
2018-05-09T07:27:22.330Z,24.11
2018-05-09T07:29:50.986Z,24.16
2018-05-09T07:32:19.524Z,24.21
2018-05-09T07:34:48.570Z,24.20
2018-05-09T07:37:17.169Z,24.22
2018-05-09T07:39:45.709Z,24.33
2018-05-09T07:42:16.820Z,24.40
2018-05-09T07:44:45.949Z,24.38
2018-05-09T07:47:14.555Z,24.36
2018-05-09T07:49:44.578Z,24.18
2018-05-09T07:52:20.377Z,24.32
2018-05-09T07:54:48.923Z,24.21
2018-05-09T07:57:18.666Z,24.28
2018-05-09T07:59:47.185Z,24.15
2018-05-09T08:02:15.773Z,24.28
2018-05-09T08:04:44.918Z,24.34
2018-05-09T08:07:13.587Z,24.39
2018-05-09T08:09:43.235Z,24.49
2018-05-09T08:12:14.400Z,24.37
2018-05-09T08:14:42.983Z,24.42
2018-05-09T08:17:16.430Z,24.38
2018-05-09T08:19:45.493Z,24.29
2018-05-09T08:22:14.141Z,24.25
2018-05-09T08:24:42.825Z,24.14
2018-05-09T08:27:22.663Z,24.19
2018-05-09T08:29:51.201Z,24.08
2018-05-09T08:32:22.399Z,24.30
2018-05-09T08:34:51.026Z,23.97
2018-05-09T08:37:20.467Z,24.18
2018-05-09T08:39:49.375Z,24.09
2018-05-09T08:42:18.236Z,24.16
2018-05-09T08:44:46.936Z,24.22
2018-05-09T08:47:15.909Z,24.37
2018-05-09T08:49:44.534Z,24.32
2018-05-09T08:52:13.279Z,24.34
2018-05-09T08:54:42.540Z,24.41
2018-05-09T08:57:11.204Z,24.14
2018-05-09T08:59:40.035Z,24.28
2018-05-09T09:02:08.575Z,24.43
2018-05-09T09:04:37.597Z,24.41
2018-05-09T09:07:06.537Z,24.48
2018-05-09T09:09:35.082Z,24.53
2018-05-09T09:12:04.766Z,24.70
2018-05-09T09:14:33.604Z,24.85
2018-05-09T09:17:02.654Z,24.95
2018-05-09T09:19:31.833Z,25.04
2018-05-09T09:22:00.723Z,25.18
2018-05-09T09:24:29.705Z,25.43
2018-05-09T09:26:58.350Z,25.57
2018-05-09T09:29:27.244Z,25.57
2018-05-09T09:31:55.800Z,25.69
2018-05-09T09:34:24.466Z,25.67
2018-05-09T09:36:59.160Z,25.73
2018-05-09T09:39:27.783Z,25.99
2018-05-09T09:41:56.535Z,26.06
2018-05-09T09:44:26.140Z,26.18
2018-05-09T09:46:54.748Z,26.16
2018-05-09T09:49:23.369Z,26.15
2018-05-09T09:51:52.370Z,26.29
2018-05-09T09:54:26.009Z,26.48
2018-05-09T09:56:54.659Z,26.74
2018-05-09T09:59:29.554Z,26.87
2018-05-09T10:01:58.539Z,27.07
2018-05-09T10:04:27.377Z,27.06
2018-05-09T10:06:56.107Z,27.14
2018-05-09T10:09:24.954Z,27.35
2018-05-09T10:11:53.811Z,27.46
2018-05-09T10:14:22.817Z,27.95
2018-05-09T10:16:51.502Z,28.34
2018-05-09T10:19:22.470Z,28.66
2018-05-09T10:21:51.034Z,28.43
2018-05-09T10:24:19.973Z,28.44
2018-05-09T10:26:48.940Z,28.58
2018-05-09T10:29:17.667Z,29.12
2018-05-09T10:31:46.666Z,29.62
2018-05-09T10:34:20.134Z,29.21
2018-05-09T10:36:49.100Z,29.27
2018-05-09T10:39:18.026Z,29.52
2018-05-09T10:41:46.931Z,28.81
2018-05-09T10:44:15.615Z,29.32
2018-05-09T10:46:48.393Z,29.33
2018-05-09T10:49:17.034Z,28.78
2018-05-09T10:51:45.606Z,29.03
2018-05-09T10:54:14.917Z,28.68
2018-05-09T10:56:43.479Z,28.79
2018-05-09T10:59:12.128Z,28.69
2018-05-09T11:01:40.757Z,28.69
2018-05-09T11:04:09.283Z,28.65
2018-05-09T11:06:38.149Z,28.59
2018-05-09T11:09:07.074Z,28.47
2018-05-09T11:11:35.652Z,28.52
2018-05-09T11:14:05.538Z,28.30
2018-05-09T11:16:36.051Z,28.50
2018-05-09T11:19:04.733Z,28.94
2018-05-09T11:21:39.318Z,29.11
2018-05-09T11:24:08.305Z,29.45
2018-05-09T11:26:36.850Z,29.98
2018-05-09T11:29:05.433Z,30.27
2018-05-09T11:31:39.937Z,30.97
2018-05-09T11:34:08.588Z,31.42
2018-05-09T11:36:37.877Z,31.73
2018-05-09T11:39:06.847Z,32.19
2018-05-09T11:41:35.593Z,32.64
2018-05-09T11:44:06.680Z,32.73
2018-05-09T11:46:35.669Z,32.74
2018-05-09T11:49:04.563Z,32.89
2018-05-09T11:51:33.238Z,33.04
2018-05-09T11:54:04.876Z,32.73
2018-05-09T11:56:33.571Z,32.04
2018-05-09T11:59:02.260Z,32.65
2018-05-09T12:01:32.466Z,32.96
2018-05-09T12:04:01.071Z,33.03
2018-05-09T12:06:30.606Z,32.79
2018-05-09T12:08:59.428Z,33.12
2018-05-09T12:11:28.087Z,33.14
2018-05-09T12:13:57.669Z,33.25
2018-05-09T12:16:26.544Z,33.23
2018-05-09T12:18:55.545Z,33.31
2018-05-09T12:21:24.308Z,33.00
2018-05-09T12:23:56.994Z,32.46
2018-05-09T12:26:25.990Z,32.31
2018-05-09T12:28:58.124Z,32.15
2018-05-09T12:31:27.107Z,32.64
2018-05-09T12:36:34.363Z,33.53
2018-05-09T12:39:09.928Z,33.94
2018-05-09T12:41:38.872Z,34.36
2018-05-09T12:44:10.499Z,35.05
2018-05-09T12:46:39.524Z,35.11
2018-05-09T12:49:09.525Z,35.16
2018-05-09T12:51:38.145Z,35.95
2018-05-09T12:54:07.163Z,36.13
2018-05-09T12:56:35.764Z,35.54
2018-05-09T12:59:08.346Z,35.12
2018-05-09T13:04:19.039Z,33.61
2018-05-09T13:06:48.049Z,34.33
2018-05-09T13:09:17.594Z,35.26
2018-05-09T13:11:46.207Z,35.96
2018-05-09T13:14:15.273Z,35.40
2018-05-09T13:16:46.339Z,36.36
2018-05-09T13:19:14.955Z,36.41
2018-05-09T13:21:44.906Z,36.83
2018-05-09T13:24:14.393Z,37.05
2018-05-09T13:26:49.682Z,36.45
2018-05-09T13:29:19.829Z,36.61
2018-05-09T13:31:48.533Z,37.11
2018-05-09T13:34:17.275Z,36.90
2018-05-09T13:36:48.376Z,35.86
2018-05-09T13:39:17.312Z,35.02
2018-05-09T13:41:52.672Z,34.59
2018-05-09T13:44:21.885Z,33.97
2018-05-09T13:46:55.255Z,33.13
2018-05-09T13:49:23.950Z,33.30
2018-05-09T13:51:52.768Z,34.35
2018-05-09T13:54:27.408Z,35.57
2018-05-09T13:56:56.027Z,36.63
2018-05-09T13:59:24.948Z,37.39
2018-05-09T14:01:53.528Z,38.36
2018-05-09T14:04:25.998Z,37.53
2018-05-09T14:06:54.555Z,38.34
2018-05-09T14:09:23.408Z,39.38
2018-05-09T14:11:52.571Z,39.16
2018-05-09T14:14:21.673Z,37.77
2018-05-09T14:16:50.279Z,38.74
2018-05-09T14:19:20.678Z,38.88
2018-05-09T14:21:53.051Z,37.94
2018-05-09T14:24:21.630Z,37.17
2018-05-09T14:26:56.291Z,36.14
2018-05-09T14:29:24.967Z,34.82
2018-05-09T14:31:53.909Z,33.31
2018-05-09T14:34:22.625Z,32.82
2018-05-09T14:36:51.221Z,32.48
2018-05-09T14:39:25.274Z,32.19
2018-05-09T14:41:53.882Z,31.64
2018-05-09T14:44:26.419Z,31.47
2018-05-09T14:46:55.293Z,31.54
2018-05-09T14:49:26.418Z,31.41
2018-05-09T14:51:55.023Z,32.34
2018-05-09T14:54:24.110Z,33.97
2018-05-09T14:56:54.550Z,35.92
2018-05-09T14:59:23.091Z,37.62
2018-05-09T15:01:52.985Z,38.84
2018-05-09T15:04:21.549Z,39.97
2018-05-09T15:06:51.243Z,40.38
2018-05-09T15:09:19.953Z,40.80
2018-05-09T15:11:48.576Z,41.59
2018-05-09T15:14:24.423Z,42.22
2018-05-09T15:16:52.965Z,43.19
2018-05-09T15:19:21.509Z,44.00
2018-05-09T15:21:53.534Z,44.21
2018-05-09T15:24:22.081Z,44.06
2018-05-09T15:26:50.649Z,43.94
2018-05-09T15:29:30.516Z,43.42
2018-05-09T15:31:59.595Z,42.46
2018-05-09T15:34:29.311Z,42.94
2018-05-09T15:36:57.882Z,42.43
2018-05-09T15:39:32.321Z,40.60
2018-05-09T15:42:01.384Z,39.68
2018-05-09T15:44:32.325Z,39.69
2018-05-09T15:47:00.982Z,39.91
2018-05-09T15:49:32.302Z,39.83
2018-05-09T15:52:00.800Z,40.13
2018-05-09T15:54:29.785Z,40.20
2018-05-09T15:56:59.409Z,40.20
2018-05-09T15:59:27.882Z,39.85
2018-05-09T16:01:56.637Z,39.58
2018-05-09T16:04:25.787Z,38.28
2018-05-09T16:06:54.355Z,37.79
2018-05-09T16:09:22.936Z,38.02
2018-05-09T16:11:56.634Z,37.79
2018-05-09T16:14:25.595Z,37.82
2018-05-09T16:16:54.251Z,37.62
2018-05-09T16:19:23.095Z,37.07
2018-05-09T16:21:51.951Z,36.14
2018-05-09T16:24:20.803Z,35.23
2018-05-09T16:26:49.436Z,34.31
2018-05-09T16:29:18.073Z,34.36
2018-05-09T16:31:48.283Z,34.34
2018-05-09T16:34:21.309Z,33.64
2018-05-09T16:36:50.196Z,33.56
2018-05-09T16:39:19.632Z,33.14
2018-05-09T16:41:48.209Z,32.79
2018-05-09T16:44:22.047Z,32.46
2018-05-09T16:46:51.179Z,31.71
2018-05-09T16:49:20.385Z,31.28
2018-05-09T16:51:48.917Z,30.97
2018-05-09T16:54:18.053Z,30.67
2018-05-09T16:56:47.550Z,30.48
2018-05-09T16:59:16.155Z,30.39
2018-05-09T17:01:44.718Z,30.35
2018-05-09T17:04:13.430Z,30.21
2018-05-09T17:06:43.441Z,30.10
2018-05-09T17:09:13.218Z,30.05
2018-05-09T17:11:41.958Z,30.04
2018-05-09T17:14:14.754Z,30.13
2018-05-09T17:19:24.596Z,30.84
2018-05-09T17:22:09.408Z,31.12
2018-05-09T17:24:43.667Z,31.44
2018-05-09T17:27:13.608Z,31.75
2018-05-09T17:29:42.257Z,31.94
2018-05-09T17:32:10.856Z,32.06
2018-05-09T17:34:39.818Z,32.22
2018-05-09T17:37:08.541Z,32.24
2018-05-09T17:39:37.667Z,32.15
2018-05-09T17:42:06.551Z,31.99
2018-05-09T17:44:35.125Z,31.80
2018-05-09T17:47:03.667Z,31.65
2018-05-09T17:49:36.774Z,31.61
2018-05-09T17:52:06.823Z,31.29
2018-05-09T17:54:42.519Z,31.11
2018-05-09T17:57:11.340Z,30.95
2018-05-09T17:59:40.089Z,30.75
2018-05-09T18:02:08.744Z,30.65
2018-05-09T18:04:38.740Z,30.47
2018-05-09T18:07:18.179Z,29.90
2018-05-09T18:09:46.761Z,29.80
2018-05-09T18:12:15.395Z,29.64
2018-05-09T18:14:44.249Z,29.31
2018-05-09T18:17:15.072Z,29.09
2018-05-09T18:19:43.729Z,29.02
2018-05-09T18:22:12.311Z,28.91
2018-05-09T18:24:41.333Z,28.73
2018-05-09T18:27:10.869Z,28.62
2018-05-09T18:29:39.599Z,28.61
2018-05-09T18:32:13.179Z,28.59
2018-05-09T18:34:41.731Z,28.47
2018-05-09T18:37:10.391Z,28.40
2018-05-09T18:39:39.272Z,28.36
2018-05-09T18:42:07.857Z,28.31
2018-05-09T18:44:39.730Z,28.26
2018-05-09T18:47:08.603Z,28.13
2018-05-09T18:49:37.162Z,28.13
2018-05-09T18:52:05.764Z,28.09
2018-05-09T18:54:34.441Z,28.03
2018-05-09T18:57:04.295Z,27.95
2018-05-09T18:59:34.363Z,27.86
2018-05-09T19:02:05.566Z,27.77
2018-05-09T19:04:37.861Z,27.64
2018-05-09T19:07:06.738Z,27.52
2018-05-09T19:09:41.275Z,27.42
2018-05-09T19:12:09.917Z,27.33
2018-05-09T19:14:38.748Z,27.24
2018-05-09T19:17:10.877Z,27.17
2018-05-09T19:19:40.989Z,27.09
2018-05-09T19:22:09.588Z,27.01
2018-05-09T19:24:43.932Z,26.93
2018-05-09T19:27:13.415Z,26.87
2018-05-09T19:29:42.811Z,26.83
2018-05-09T19:32:11.437Z,26.78
2018-05-09T19:34:40.668Z,26.74
2018-05-09T19:37:09.267Z,26.71
2018-05-09T19:39:37.861Z,26.64
2018-05-09T19:42:06.743Z,26.60
2018-05-09T19:44:35.311Z,26.61
2018-05-09T19:47:03.840Z,26.58
2018-05-09T19:49:33.023Z,26.51
2018-05-09T19:52:05.514Z,26.47
2018-05-09T19:54:34.544Z,26.41
2018-05-09T19:57:03.300Z,26.34
2018-05-09T19:59:31.906Z,26.29
2018-05-09T20:02:01.190Z,26.24
2018-05-09T20:04:29.833Z,26.20
2018-05-09T20:06:58.728Z,26.16
2018-05-09T20:09:28.463Z,26.10
2018-05-09T20:11:57.091Z,26.04
2018-05-09T20:14:25.671Z,25.98
2018-05-09T20:16:55.648Z,25.94
2018-05-09T20:19:24.187Z,25.90
2018-05-09T20:21:52.797Z,25.87
2018-05-09T20:24:22.153Z,25.84
2018-05-09T20:26:50.716Z,25.81
2018-05-09T20:29:19.677Z,25.76
2018-05-09T20:32:00.085Z,25.72
2018-05-09T20:34:28.844Z,25.67
2018-05-09T20:36:58.644Z,25.63
2018-05-09T20:39:27.227Z,25.58
2018-05-09T20:41:55.859Z,25.54
2018-05-09T20:44:25.127Z,25.49
2018-05-09T20:46:58.605Z,25.45
2018-05-09T20:49:27.428Z,25.40
2018-05-09T20:51:56.474Z,25.35
2018-05-09T20:54:25.061Z,25.30
2018-05-09T20:56:53.631Z,25.26
2018-05-09T20:59:22.897Z,25.23
2018-05-09T21:01:51.466Z,25.20
2018-05-09T21:04:31.049Z,25.16
2018-05-09T21:07:00.350Z,25.14
2018-05-09T21:09:29.290Z,25.12
2018-05-09T21:12:07.354Z,25.15
2018-05-09T21:14:36.393Z,25.16
2018-05-09T21:17:05.928Z,25.15
2018-05-09T21:19:34.487Z,25.16
2018-05-09T21:22:04.375Z,25.13
2018-05-09T21:24:32.979Z,25.01
2018-05-09T21:27:01.575Z,24.98
2018-05-09T21:29:30.463Z,24.99
2018-05-09T21:31:58.995Z,25.01
2018-05-09T21:34:27.973Z,24.98
2018-05-09T21:36:56.538Z,24.98
2018-05-09T21:39:25.065Z,24.96
2018-05-09T21:41:53.885Z,24.89
2018-05-09T21:44:22.545Z,24.84
2018-05-09T21:46:51.239Z,24.82
2018-05-09T21:49:20.708Z,24.79
2018-05-09T21:51:55.474Z,24.77
2018-05-09T21:54:24.991Z,24.74
2018-05-09T21:56:53.547Z,24.72
2018-05-09T21:59:22.086Z,24.70
2018-05-09T22:01:51.080Z,24.69
2018-05-09T22:04:19.704Z,24.66
2018-05-09T22:06:48.243Z,24.63
2018-05-09T22:09:17.473Z,24.64
2018-05-09T22:11:46.046Z,24.64
2018-05-09T22:14:16.370Z,24.59
2018-05-09T22:16:50.438Z,24.53
2018-05-09T22:19:19.189Z,24.56
2018-05-09T22:21:47.643Z,24.56
2018-05-09T22:24:16.723Z,24.51
2018-05-09T22:26:45.251Z,24.47
2018-05-09T22:29:13.885Z,24.47
2018-05-09T22:31:42.619Z,24.46
2018-05-09T22:34:16.423Z,24.45
2018-05-09T22:36:45.023Z,24.44
2018-05-09T22:39:16.353Z,24.43
2018-05-09T22:41:45.006Z,24.44
2018-05-09T22:44:13.661Z,24.44
2018-05-09T22:46:45.469Z,24.41
2018-05-09T22:49:14.055Z,24.41
2018-05-09T22:51:43.762Z,24.41
2018-05-09T22:54:12.476Z,24.37
2018-05-09T22:56:41.451Z,24.38
2018-05-09T22:59:10.488Z,24.41
2018-05-09T23:01:39.042Z,24.44
2018-05-09T23:04:07.707Z,24.45
2018-05-09T23:06:40.409Z,24.48
2018-05-09T23:09:08.977Z,24.42
2018-05-09T23:11:37.592Z,24.45
2018-05-09T23:14:07.901Z,24.45
2018-05-09T23:16:36.413Z,24.41
2018-05-09T23:19:05.003Z,24.40
2018-05-09T23:21:37.415Z,24.33
2018-05-09T23:24:07.644Z,24.28
2018-05-09T23:26:37.782Z,24.30
2018-05-09T23:29:06.341Z,24.29
2018-05-09T23:31:34.939Z,24.26
2018-05-09T23:34:16.969Z,24.13
2018-05-09T23:36:45.538Z,24.16
2018-05-09T23:39:14.810Z,24.17
2018-05-09T23:41:43.611Z,24.19
2018-05-09T23:44:13.129Z,24.23
2018-05-09T23:46:43.145Z,24.22
2018-05-09T23:49:22.391Z,24.17
2018-05-09T23:51:51.309Z,24.15
2018-05-09T23:54:20.571Z,24.13
2018-05-09T23:56:49.201Z,24.11
2018-05-09T23:59:24.950Z,24.05
